sensor_id;sensor_type;location;lat;lon;timestamp;P1;durP1;ratioP1;P2;durP2;ratioP2
19111;SDS011;9688;51.906;8.376;2023-08-17T00:02:03;13.70;;;6.07;;
19111;SDS011;9688;51.906;8.376;2023-08-17T00:04:49;0.50;;;0.50;;
19111;SDS011;9688;51.906;8.376;2023-08-17T00:07:35;0.00;;;0.00;;
19111;SDS011;9688;51.906;8.376;2023-08-17T00:10:21;0.10;;;0.10;;
19111;SDS011;9688;51.906;8.376;2023-08-17T00:13:07;0.13;;;0.13;;
19111;SDS011;9688;51.906;8.376;2023-08-17T00:15:54;0.10;;;0.10;;
19111;SDS011;9688;51.906;8.376;2023-08-17T00:18:40;0.10;;;0.10;;
19111;SDS011;9688;51.906;8.376;2023-08-17T00:21:26;0.00;;;0.00;;
19111;SDS011;9688;51.906;8.376;2023-08-17T00:24:11;0.00;;;0.00;;
19111;SDS011;9688;51.906;8.376;2023-08-17T00:26:57;0.00;;;0.00;;
19111;SDS011;9688;51.906;8.376;2023-08-17T00:29:44;0.20;;;0.20;;
19111;SDS011;9688;51.906;8.376;2023-08-17T00:32:31;0.10;;;0.10;;
19111;SDS011;9688;51.906;8.376;2023-08-17T00:35:16;0.10;;;0.10;;
19111;SDS011;9688;51.906;8.376;2023-08-17T00:38:03;0.27;;;0.27;;
19111;SDS011;9688;51.906;8.376;2023-08-17T00:40:48;0.00;;;0.00;;
19111;SDS011;9688;51.906;8.376;2023-08-17T00:43:34;0.10;;;0.10;;
19111;SDS011;9688;51.906;8.376;2023-08-17T00:46:20;0.00;;;0.00;;
19111;SDS011;9688;51.906;8.376;2023-08-17T00:49:08;0.00;;;0.00;;
19111;SDS011;9688;51.906;8.376;2023-08-17T00:51:55;0.00;;;0.00;;
19111;SDS011;9688;51.906;8.376;2023-08-17T00:54:42;0.27;;;0.27;;
19111;SDS011;9688;51.906;8.376;2023-08-17T00:57:28;0.00;;;0.00;;
19111;SDS011;9688;51.906;8.376;2023-08-17T01:00:14;0.00;;;0.00;;
19111;SDS011;9688;51.906;8.376;2023-08-17T01:03:00;0.00;;;0.00;;
19111;SDS011;9688;51.906;8.376;2023-08-17T01:05:47;0.00;;;0.00;;
19111;SDS011;9688;51.906;8.376;2023-08-17T01:08:32;0.00;;;0.00;;
19111;SDS011;9688;51.906;8.376;2023-08-17T01:11:21;0.00;;;0.00;;
19111;SDS011;9688;51.906;8.376;2023-08-17T01:14:14;0.00;;;0.00;;
19111;SDS011;9688;51.906;8.376;2023-08-17T01:17:08;0.00;;;0.00;;
19111;SDS011;9688;51.906;8.376;2023-08-17T01:20:00;0.07;;;0.07;;
19111;SDS011;9688;51.906;8.376;2023-08-17T01:22:51;0.00;;;0.00;;
19111;SDS011;9688;51.906;8.376;2023-08-17T01:25:43;0.00;;;0.00;;
19111;SDS011;9688;51.906;8.376;2023-08-17T01:28:29;0.00;;;0.00;;
19111;SDS011;9688;51.906;8.376;2023-08-17T01:31:16;0.10;;;0.10;;
19111;SDS011;9688;51.906;8.376;2023-08-17T01:34:13;0.07;;;0.07;;
19111;SDS011;9688;51.906;8.376;2023-08-17T01:37:03;0.00;;;0.00;;
19111;SDS011;9688;51.906;8.376;2023-08-17T01:39:52;0.20;;;0.20;;
19111;SDS011;9688;51.906;8.376;2023-08-17T01:42:43;0.00;;;0.00;;
19111;SDS011;9688;51.906;8.376;2023-08-17T01:45:28;0.10;;;0.10;;
19111;SDS011;9688;51.906;8.376;2023-08-17T01:48:14;0.00;;;0.00;;
19111;SDS011;9688;51.906;8.376;2023-08-17T01:51:01;0.00;;;0.00;;
19111;SDS011;9688;51.906;8.376;2023-08-17T01:53:47;0.00;;;0.00;;
19111;SDS011;9688;51.906;8.376;2023-08-17T01:56:32;0.00;;;0.00;;
19111;SDS011;9688;51.906;8.376;2023-08-17T01:59:19;0.00;;;0.00;;
19111;SDS011;9688;51.906;8.376;2023-08-17T02:02:05;0.10;;;0.10;;
19111;SDS011;9688;51.906;8.376;2023-08-17T02:04:53;0.00;;;0.00;;
19111;SDS011;9688;51.906;8.376;2023-08-17T02:07:38;0.00;;;0.00;;
19111;SDS011;9688;51.906;8.376;2023-08-17T02:10:24;0.00;;;0.00;;
19111;SDS011;9688;51.906;8.376;2023-08-17T02:13:10;0.00;;;0.00;;
19111;SDS011;9688;51.906;8.376;2023-08-17T02:15:58;0.00;;;0.00;;
19111;SDS011;9688;51.906;8.376;2023-08-17T02:18:43;0.00;;;0.00;;
19111;SDS011;9688;51.906;8.376;2023-08-17T02:21:29;0.07;;;0.07;;
19111;SDS011;9688;51.906;8.376;2023-08-17T02:24:15;0.00;;;0.00;;
19111;SDS011;9688;51.906;8.376;2023-08-17T02:27:01;0.10;;;0.10;;
19111;SDS011;9688;51.906;8.376;2023-08-17T02:29:47;0.00;;;0.00;;
19111;SDS011;9688;51.906;8.376;2023-08-17T02:32:34;0.00;;;0.00;;
19111;SDS011;9688;51.906;8.376;2023-08-17T02:35:20;0.00;;;0.00;;
19111;SDS011;9688;51.906;8.376;2023-08-17T02:38:07;0.00;;;0.00;;
19111;SDS011;9688;51.906;8.376;2023-08-17T02:40:53;0.00;;;0.00;;
19111;SDS011;9688;51.906;8.376;2023-08-17T02:43:39;0.00;;;0.00;;
19111;SDS011;9688;51.906;8.376;2023-08-17T02:46:25;0.00;;;0.00;;
19111;SDS011;9688;51.906;8.376;2023-08-17T02:49:12;0.00;;;0.00;;
19111;SDS011;9688;51.906;8.376;2023-08-17T02:51:57;0.00;;;0.00;;
19111;SDS011;9688;51.906;8.376;2023-08-17T02:54:44;0.00;;;0.00;;
19111;SDS011;9688;51.906;8.376;2023-08-17T02:57:30;0.00;;;0.00;;
19111;SDS011;9688;51.906;8.376;2023-08-17T03:00:15;0.00;;;0.00;;
19111;SDS011;9688;51.906;8.376;2023-08-17T03:03:02;0.00;;;0.00;;
19111;SDS011;9688;51.906;8.376;2023-08-17T03:05:49;0.10;;;0.10;;
19111;SDS011;9688;51.906;8.376;2023-08-17T03:08:35;0.10;;;0.10;;
19111;SDS011;9688;51.906;8.376;2023-08-17T03:11:21;0.00;;;0.00;;
19111;SDS011;9688;51.906;8.376;2023-08-17T03:14:06;0.00;;;0.00;;
19111;SDS011;9688;51.906;8.376;2023-08-17T03:16:53;0.00;;;0.00;;
19111;SDS011;9688;51.906;8.376;2023-08-17T03:19:38;0.00;;;0.00;;
19111;SDS011;9688;51.906;8.376;2023-08-17T03:22:25;0.13;;;0.13;;
19111;SDS011;9688;51.906;8.376;2023-08-17T03:25:11;0.00;;;0.00;;
19111;SDS011;9688;51.906;8.376;2023-08-17T03:27:57;0.00;;;0.00;;
19111;SDS011;9688;51.906;8.376;2023-08-17T03:30:43;0.10;;;0.10;;
19111;SDS011;9688;51.906;8.376;2023-08-17T03:33:30;0.00;;;0.00;;
19111;SDS011;9688;51.906;8.376;2023-08-17T03:36:16;0.00;;;0.00;;
19111;SDS011;9688;51.906;8.376;2023-08-17T03:39:03;0.00;;;0.00;;
19111;SDS011;9688;51.906;8.376;2023-08-17T03:41:49;0.10;;;0.10;;
19111;SDS011;9688;51.906;8.376;2023-08-17T03:44:35;0.10;;;0.10;;
19111;SDS011;9688;51.906;8.376;2023-08-17T03:47:21;0.00;;;0.00;;
19111;SDS011;9688;51.906;8.376;2023-08-17T03:50:08;0.00;;;0.00;;
19111;SDS011;9688;51.906;8.376;2023-08-17T03:52:54;0.10;;;0.10;;
19111;SDS011;9688;51.906;8.376;2023-08-17T03:55:44;0.00;;;0.00;;
19111;SDS011;9688;51.906;8.376;2023-08-17T03:58:31;0.00;;;0.00;;
19111;SDS011;9688;51.906;8.376;2023-08-17T04:01:18;0.00;;;0.00;;
19111;SDS011;9688;51.906;8.376;2023-08-17T04:04:04;0.10;;;0.10;;
19111;SDS011;9688;51.906;8.376;2023-08-17T04:06:50;0.00;;;0.00;;
19111;SDS011;9688;51.906;8.376;2023-08-17T04:09:36;0.00;;;0.00;;
19111;SDS011;9688;51.906;8.376;2023-08-17T04:12:23;0.10;;;0.10;;
19111;SDS011;9688;51.906;8.376;2023-08-17T04:15:09;0.00;;;0.00;;
19111;SDS011;9688;51.906;8.376;2023-08-17T04:17:54;0.00;;;0.00;;
19111;SDS011;9688;51.906;8.376;2023-08-17T04:20:41;0.00;;;0.00;;
19111;SDS011;9688;51.906;8.376;2023-08-17T04:23:26;0.00;;;0.00;;
19111;SDS011;9688;51.906;8.376;2023-08-17T04:26:12;1.10;;;0.30;;
19111;SDS011;9688;51.906;8.376;2023-08-17T04:28:59;0.00;;;0.00;;
19111;SDS011;9688;51.906;8.376;2023-08-17T04:31:45;0.00;;;0.00;;
19111;SDS011;9688;51.906;8.376;2023-08-17T04:34:31;0.00;;;0.00;;
19111;SDS011;9688;51.906;8.376;2023-08-17T04:37:17;0.00;;;0.00;;
19111;SDS011;9688;51.906;8.376;2023-08-17T04:40:03;0.10;;;0.10;;
19111;SDS011;9688;51.906;8.376;2023-08-17T04:42:49;0.00;;;0.00;;
19111;SDS011;9688;51.906;8.376;2023-08-17T04:45:36;0.00;;;0.00;;
19111;SDS011;9688;51.906;8.376;2023-08-17T04:48:22;0.00;;;0.00;;
19111;SDS011;9688;51.906;8.376;2023-08-17T04:51:07;0.00;;;0.00;;
19111;SDS011;9688;51.906;8.376;2023-08-17T04:53:54;0.17;;;0.17;;
19111;SDS011;9688;51.906;8.376;2023-08-17T04:56:39;0.10;;;0.10;;
19111;SDS011;9688;51.906;8.376;2023-08-17T04:59:27;0.00;;;0.00;;
19111;SDS011;9688;51.906;8.376;2023-08-17T05:02:14;0.00;;;0.00;;
19111;SDS011;9688;51.906;8.376;2023-08-17T05:05:02;0.10;;;0.10;;
19111;SDS011;9688;51.906;8.376;2023-08-17T05:07:48;0.10;;;0.10;;
19111;SDS011;9688;51.906;8.376;2023-08-17T05:10:34;0.00;;;0.00;;
19111;SDS011;9688;51.906;8.376;2023-08-17T05:13:20;0.20;;;0.20;;
19111;SDS011;9688;51.906;8.376;2023-08-17T05:16:06;0.00;;;0.00;;
19111;SDS011;9688;51.906;8.376;2023-08-17T05:18:52;0.00;;;0.00;;
19111;SDS011;9688;51.906;8.376;2023-08-17T05:21:38;0.00;;;0.00;;
19111;SDS011;9688;51.906;8.376;2023-08-17T05:24:24;0.00;;;0.00;;
19111;SDS011;9688;51.906;8.376;2023-08-17T05:27:11;0.00;;;0.00;;
19111;SDS011;9688;51.906;8.376;2023-08-17T05:29:56;0.00;;;0.00;;
19111;SDS011;9688;51.906;8.376;2023-08-17T05:32:42;0.00;;;0.00;;
19111;SDS011;9688;51.906;8.376;2023-08-17T05:35:29;0.10;;;0.10;;
19111;SDS011;9688;51.906;8.376;2023-08-17T05:38:15;0.00;;;0.00;;
19111;SDS011;9688;51.906;8.376;2023-08-17T05:41:01;0.00;;;0.00;;
19111;SDS011;9688;51.906;8.376;2023-08-17T05:43:47;0.10;;;0.10;;
19111;SDS011;9688;51.906;8.376;2023-08-17T05:46:33;0.00;;;0.00;;
19111;SDS011;9688;51.906;8.376;2023-08-17T05:49:20;0.10;;;0.10;;
19111;SDS011;9688;51.906;8.376;2023-08-17T05:52:07;0.00;;;0.00;;
19111;SDS011;9688;51.906;8.376;2023-08-17T05:54:52;0.00;;;0.00;;
19111;SDS011;9688;51.906;8.376;2023-08-17T05:57:38;0.10;;;0.10;;
19111;SDS011;9688;51.906;8.376;2023-08-17T06:00:24;0.00;;;0.00;;
19111;SDS011;9688;51.906;8.376;2023-08-17T06:03:10;0.00;;;0.00;;
19111;SDS011;9688;51.906;8.376;2023-08-17T06:05:59;0.00;;;0.00;;
19111;SDS011;9688;51.906;8.376;2023-08-17T06:08:47;0.00;;;0.00;;
19111;SDS011;9688;51.906;8.376;2023-08-17T06:11:33;0.00;;;0.00;;
19111;SDS011;9688;51.906;8.376;2023-08-17T06:14:19;0.00;;;0.00;;
19111;SDS011;9688;51.906;8.376;2023-08-17T06:17:05;0.00;;;0.00;;
19111;SDS011;9688;51.906;8.376;2023-08-17T06:19:51;0.03;;;0.03;;
19111;SDS011;9688;51.906;8.376;2023-08-17T06:22:37;0.10;;;0.10;;
19111;SDS011;9688;51.906;8.376;2023-08-17T06:25:24;0.00;;;0.00;;
19111;SDS011;9688;51.906;8.376;2023-08-17T06:28:10;0.13;;;0.10;;
19111;SDS011;9688;51.906;8.376;2023-08-17T06:30:57;0.00;;;0.00;;
19111;SDS011;9688;51.906;8.376;2023-08-17T06:33:45;0.10;;;0.10;;
19111;SDS011;9688;51.906;8.376;2023-08-17T06:36:31;0.00;;;0.00;;
19111;SDS011;9688;51.906;8.376;2023-08-17T06:39:18;0.00;;;0.00;;
19111;SDS011;9688;51.906;8.376;2023-08-17T06:42:05;0.10;;;0.10;;
19111;SDS011;9688;51.906;8.376;2023-08-17T06:44:51;0.00;;;0.00;;
19111;SDS011;9688;51.906;8.376;2023-08-17T06:47:37;0.00;;;0.00;;
19111;SDS011;9688;51.906;8.376;2023-08-17T06:50:23;0.10;;;0.10;;
19111;SDS011;9688;51.906;8.376;2023-08-17T06:53:11;0.10;;;0.10;;
19111;SDS011;9688;51.906;8.376;2023-08-17T06:55:56;0.00;;;0.00;;
19111;SDS011;9688;51.906;8.376;2023-08-17T06:58:44;0.00;;;0.00;;
19111;SDS011;9688;51.906;8.376;2023-08-17T07:01:30;0.00;;;0.00;;
19111;SDS011;9688;51.906;8.376;2023-08-17T07:04:16;0.00;;;0.00;;
19111;SDS011;9688;51.906;8.376;2023-08-17T07:07:03;0.00;;;0.00;;
19111;SDS011;9688;51.906;8.376;2023-08-17T07:09:49;0.00;;;0.00;;
19111;SDS011;9688;51.906;8.376;2023-08-17T07:12:35;0.10;;;0.10;;
19111;SDS011;9688;51.906;8.376;2023-08-17T07:15:22;0.00;;;0.00;;
19111;SDS011;9688;51.906;8.376;2023-08-17T07:18:09;0.00;;;0.00;;
19111;SDS011;9688;51.906;8.376;2023-08-17T07:20:55;0.23;;;0.23;;
19111;SDS011;9688;51.906;8.376;2023-08-17T07:23:44;0.00;;;0.00;;
19111;SDS011;9688;51.906;8.376;2023-08-17T07:26:31;0.00;;;0.00;;
19111;SDS011;9688;51.906;8.376;2023-08-17T07:29:19;0.00;;;0.00;;
19111;SDS011;9688;51.906;8.376;2023-08-17T07:32:07;0.00;;;0.00;;
19111;SDS011;9688;51.906;8.376;2023-08-17T07:34:53;0.00;;;0.00;;
19111;SDS011;9688;51.906;8.376;2023-08-17T07:37:39;0.00;;;0.00;;
19111;SDS011;9688;51.906;8.376;2023-08-17T07:40:25;0.00;;;0.00;;
19111;SDS011;9688;51.906;8.376;2023-08-17T07:43:11;0.00;;;0.00;;
19111;SDS011;9688;51.906;8.376;2023-08-17T07:45:57;0.00;;;0.00;;
19111;SDS011;9688;51.906;8.376;2023-08-17T07:48:44;0.00;;;0.00;;
19111;SDS011;9688;51.906;8.376;2023-08-17T07:51:30;0.00;;;0.00;;
19111;SDS011;9688;51.906;8.376;2023-08-17T07:54:18;0.00;;;0.00;;
19111;SDS011;9688;51.906;8.376;2023-08-17T07:57:04;0.00;;;0.00;;
19111;SDS011;9688;51.906;8.376;2023-08-17T07:59:50;0.00;;;0.00;;
19111;SDS011;9688;51.906;8.376;2023-08-17T08:02:38;0.00;;;0.00;;
19111;SDS011;9688;51.906;8.376;2023-08-17T08:05:25;0.00;;;0.00;;
19111;SDS011;9688;51.906;8.376;2023-08-17T08:08:11;0.10;;;0.10;;
19111;SDS011;9688;51.906;8.376;2023-08-17T08:10:58;0.00;;;0.00;;
19111;SDS011;9688;51.906;8.376;2023-08-17T08:13:44;0.03;;;0.03;;
19111;SDS011;9688;51.906;8.376;2023-08-17T08:16:30;0.00;;;0.00;;
19111;SDS011;9688;51.906;8.376;2023-08-17T08:19:16;0.00;;;0.00;;
19111;SDS011;9688;51.906;8.376;2023-08-17T08:22:04;0.00;;;0.00;;
19111;SDS011;9688;51.906;8.376;2023-08-17T08:24:50;0.00;;;0.00;;
19111;SDS011;9688;51.906;8.376;2023-08-17T08:27:42;0.10;;;0.10;;
19111;SDS011;9688;51.906;8.376;2023-08-17T08:30:31;0.00;;;0.00;;
19111;SDS011;9688;51.906;8.376;2023-08-17T08:33:18;0.00;;;0.00;;
19111;SDS011;9688;51.906;8.376;2023-08-17T08:36:10;0.10;;;0.10;;
19111;SDS011;9688;51.906;8.376;2023-08-17T08:38:58;0.00;;;0.00;;
19111;SDS011;9688;51.906;8.376;2023-08-17T08:41:43;0.00;;;0.00;;
19111;SDS011;9688;51.906;8.376;2023-08-17T08:44:30;0.00;;;0.00;;
19111;SDS011;9688;51.906;8.376;2023-08-17T08:47:16;0.00;;;0.00;;
19111;SDS011;9688;51.906;8.376;2023-08-17T08:50:03;0.00;;;0.00;;
19111;SDS011;9688;51.906;8.376;2023-08-17T08:52:53;0.00;;;0.00;;
19111;SDS011;9688;51.906;8.376;2023-08-17T08:55:47;0.10;;;0.10;;
19111;SDS011;9688;51.906;8.376;2023-08-17T08:58:40;0.00;;;0.00;;
19111;SDS011;9688;51.906;8.376;2023-08-17T09:01:28;0.00;;;0.00;;
19111;SDS011;9688;51.906;8.376;2023-08-17T09:04:16;0.00;;;0.00;;
19111;SDS011;9688;51.906;8.376;2023-08-17T09:07:03;0.00;;;0.00;;
19111;SDS011;9688;51.906;8.376;2023-08-17T09:09:49;0.10;;;0.10;;
19111;SDS011;9688;51.906;8.376;2023-08-17T09:12:40;0.00;;;0.00;;
19111;SDS011;9688;51.906;8.376;2023-08-17T09:15:26;0.00;;;0.00;;
19111;SDS011;9688;51.906;8.376;2023-08-17T09:18:15;0.00;;;0.00;;
19111;SDS011;9688;51.906;8.376;2023-08-17T09:21:03;0.00;;;0.00;;
19111;SDS011;9688;51.906;8.376;2023-08-17T09:23:53;0.00;;;0.00;;
19111;SDS011;9688;51.906;8.376;2023-08-17T09:26:40;0.00;;;0.00;;
19111;SDS011;9688;51.906;8.376;2023-08-17T09:29:27;0.00;;;0.00;;
19111;SDS011;9688;51.906;8.376;2023-08-17T09:32:17;0.00;;;0.00;;
19111;SDS011;9688;51.906;8.376;2023-08-17T09:35:04;0.00;;;0.00;;
19111;SDS011;9688;51.906;8.376;2023-08-17T09:37:51;0.10;;;0.10;;
19111;SDS011;9688;51.906;8.376;2023-08-17T09:40:40;0.20;;;0.20;;
19111;SDS011;9688;51.906;8.376;2023-08-17T09:43:27;0.00;;;0.00;;
19111;SDS011;9688;51.906;8.376;2023-08-17T09:46:18;0.00;;;0.00;;
19111;SDS011;9688;51.906;8.376;2023-08-17T09:49:05;0.10;;;0.10;;
19111;SDS011;9688;51.906;8.376;2023-08-17T09:51:53;0.00;;;0.00;;
19111;SDS011;9688;51.906;8.376;2023-08-17T09:54:39;0.00;;;0.00;;
19111;SDS011;9688;51.906;8.376;2023-08-17T09:57:27;0.00;;;0.00;;
19111;SDS011;9688;51.906;8.376;2023-08-17T10:00:16;0.00;;;0.00;;
19111;SDS011;9688;51.906;8.376;2023-08-17T10:03:05;0.07;;;0.07;;
19111;SDS011;9688;51.906;8.376;2023-08-17T10:05:52;0.00;;;0.00;;
19111;SDS011;9688;51.906;8.376;2023-08-17T10:08:45;0.00;;;0.00;;
19111;SDS011;9688;51.906;8.376;2023-08-17T10:11:33;0.00;;;0.00;;
19111;SDS011;9688;51.906;8.376;2023-08-17T10:14:28;0.00;;;0.00;;
19111;SDS011;9688;51.906;8.376;2023-08-17T10:17:20;0.00;;;0.00;;
19111;SDS011;9688;51.906;8.376;2023-08-17T10:20:13;0.00;;;0.00;;
19111;SDS011;9688;51.906;8.376;2023-08-17T10:23:01;0.10;;;0.10;;
19111;SDS011;9688;51.906;8.376;2023-08-17T10:25:53;0.00;;;0.00;;
19111;SDS011;9688;51.906;8.376;2023-08-17T10:28:41;0.00;;;0.00;;
19111;SDS011;9688;51.906;8.376;2023-08-17T10:31:29;0.00;;;0.00;;
19111;SDS011;9688;51.906;8.376;2023-08-17T10:34:15;0.00;;;0.00;;
19111;SDS011;9688;51.906;8.376;2023-08-17T10:37:04;0.00;;;0.00;;
19111;SDS011;9688;51.906;8.376;2023-08-17T10:39:53;0.10;;;0.10;;
19111;SDS011;9688;51.906;8.376;2023-08-17T10:42:43;0.00;;;0.00;;
19111;SDS011;9688;51.906;8.376;2023-08-17T10:45:39;0.13;;;0.13;;
19111;SDS011;9688;51.906;8.376;2023-08-17T10:48:29;0.00;;;0.00;;
19111;SDS011;9688;51.906;8.376;2023-08-17T10:51:16;0.00;;;0.00;;
19111;SDS011;9688;51.906;8.376;2023-08-17T10:54:11;0.90;;;0.40;;
19111;SDS011;9688;51.906;8.376;2023-08-17T10:56:59;0.00;;;0.00;;
19111;SDS011;9688;51.906;8.376;2023-08-17T10:59:45;0.00;;;0.00;;
19111;SDS011;9688;51.906;8.376;2023-08-17T11:02:32;0.10;;;0.10;;
19111;SDS011;9688;51.906;8.376;2023-08-17T11:05:35;0.00;;;0.00;;
19111;SDS011;9688;51.906;8.376;2023-08-17T11:08:27;0.10;;;0.10;;
19111;SDS011;9688;51.906;8.376;2023-08-17T11:11:16;0.00;;;0.00;;
19111;SDS011;9688;51.906;8.376;2023-08-17T11:14:04;0.10;;;0.10;;
19111;SDS011;9688;51.906;8.376;2023-08-17T11:16:51;0.00;;;0.00;;
19111;SDS011;9688;51.906;8.376;2023-08-17T11:19:39;22.00;;;12.47;;
19111;SDS011;9688;51.906;8.376;2023-08-17T11:22:26;19.13;;;11.93;;
19111;SDS011;9688;51.906;8.376;2023-08-17T11:25:13;23.13;;;13.60;;
19111;SDS011;9688;51.906;8.376;2023-08-17T11:28:03;24.47;;;13.53;;
19111;SDS011;9688;51.906;8.376;2023-08-17T11:31:00;26.80;;;14.83;;
19111;SDS011;9688;51.906;8.376;2023-08-17T11:33:48;25.10;;;13.53;;
19111;SDS011;9688;51.906;8.376;2023-08-17T11:36:33;24.57;;;14.43;;
19111;SDS011;9688;51.906;8.376;2023-08-17T11:39:20;22.10;;;13.13;;
19111;SDS011;9688;51.906;8.376;2023-08-17T11:42:07;23.67;;;13.67;;
19111;SDS011;9688;51.906;8.376;2023-08-17T11:44:55;28.63;;;14.57;;
19111;SDS011;9688;51.906;8.376;2023-08-17T11:47:42;25.67;;;14.13;;
19111;SDS011;9688;51.906;8.376;2023-08-17T11:50:29;24.40;;;14.20;;
19111;SDS011;9688;51.906;8.376;2023-08-17T11:53:15;25.07;;;14.63;;
19111;SDS011;9688;51.906;8.376;2023-08-17T11:56:01;23.47;;;14.50;;
19111;SDS011;9688;51.906;8.376;2023-08-17T11:58:47;20.73;;;14.07;;
19111;SDS011;9688;51.906;8.376;2023-08-17T12:01:35;23.10;;;13.87;;
19111;SDS011;9688;51.906;8.376;2023-08-17T12:04:21;26.40;;;14.33;;
19111;SDS011;9688;51.906;8.376;2023-08-17T12:07:10;21.77;;;12.83;;
19111;SDS011;9688;51.906;8.376;2023-08-17T12:09:56;22.60;;;12.77;;
19111;SDS011;9688;51.906;8.376;2023-08-17T12:12:42;17.23;;;11.70;;
19111;SDS011;9688;51.906;8.376;2023-08-17T12:15:30;16.20;;;10.80;;
19111;SDS011;9688;51.906;8.376;2023-08-17T12:18:18;15.87;;;10.73;;
19111;SDS011;9688;51.906;8.376;2023-08-17T12:21:07;16.80;;;10.33;;
19111;SDS011;9688;51.906;8.376;2023-08-17T12:23:54;13.23;;;9.83;;
19111;SDS011;9688;51.906;8.376;2023-08-17T12:26:41;14.60;;;9.63;;
19111;SDS011;9688;51.906;8.376;2023-08-17T12:29:28;12.30;;;8.93;;
19111;SDS011;9688;51.906;8.376;2023-08-17T12:32:14;12.40;;;8.77;;
19111;SDS011;9688;51.906;8.376;2023-08-17T12:35:02;9.63;;;8.40;;
19111;SDS011;9688;51.906;8.376;2023-08-17T12:37:51;13.37;;;9.00;;
19111;SDS011;9688;51.906;8.376;2023-08-17T12:40:37;13.37;;;8.77;;
19111;SDS011;9688;51.906;8.376;2023-08-17T12:43:23;11.53;;;8.37;;
19111;SDS011;9688;51.906;8.376;2023-08-17T12:46:11;12.63;;;9.03;;
19111;SDS011;9688;51.906;8.376;2023-08-17T12:48:57;9.70;;;8.17;;
19111;SDS011;9688;51.906;8.376;2023-08-17T12:51:44;10.37;;;8.73;;
19111;SDS011;9688;51.906;8.376;2023-08-17T12:54:31;12.57;;;8.23;;
19111;SDS011;9688;51.906;8.376;2023-08-17T12:57:17;13.07;;;8.87;;
19111;SDS011;9688;51.906;8.376;2023-08-17T13:00:03;12.47;;;8.70;;
19111;SDS011;9688;51.906;8.376;2023-08-17T13:02:50;11.27;;;8.43;;
19111;SDS011;9688;51.906;8.376;2023-08-17T13:05:37;11.70;;;8.63;;
19111;SDS011;9688;51.906;8.376;2023-08-17T13:08:25;13.43;;;8.90;;
19111;SDS011;9688;51.906;8.376;2023-08-17T13:11:13;11.17;;;7.70;;
19111;SDS011;9688;51.906;8.376;2023-08-17T13:14:02;11.90;;;8.80;;
19111;SDS011;9688;51.906;8.376;2023-08-17T13:16:48;11.30;;;8.37;;
19111;SDS011;9688;51.906;8.376;2023-08-17T13:19:34;12.73;;;8.60;;
19111;SDS011;9688;51.906;8.376;2023-08-17T13:22:21;13.50;;;8.97;;
19111;SDS011;9688;51.906;8.376;2023-08-17T13:25:09;10.87;;;8.20;;
19111;SDS011;9688;51.906;8.376;2023-08-17T13:27:55;13.30;;;8.60;;
19111;SDS011;9688;51.906;8.376;2023-08-17T13:30:40;9.93;;;7.80;;
19111;SDS011;9688;51.906;8.376;2023-08-17T13:33:27;10.67;;;7.77;;
19111;SDS011;9688;51.906;8.376;2023-08-17T13:36:13;8.97;;;7.30;;
19111;SDS011;9688;51.906;8.376;2023-08-17T13:39:01;10.03;;;7.23;;
19111;SDS011;9688;51.906;8.376;2023-08-17T13:41:51;10.63;;;7.37;;
19111;SDS011;9688;51.906;8.376;2023-08-17T13:44:38;12.07;;;7.60;;
19111;SDS011;9688;51.906;8.376;2023-08-17T13:47:25;9.63;;;7.67;;
19111;SDS011;9688;51.906;8.376;2023-08-17T13:50:11;10.07;;;7.57;;
19111;SDS011;9688;51.906;8.376;2023-08-17T13:52:57;10.23;;;7.37;;
19111;SDS011;9688;51.906;8.376;2023-08-17T13:55:45;10.23;;;6.63;;
19111;SDS011;9688;51.906;8.376;2023-08-17T13:58:32;10.87;;;7.27;;
19111;SDS011;9688;51.906;8.376;2023-08-17T14:01:18;12.20;;;7.97;;
19111;SDS011;9688;51.906;8.376;2023-08-17T14:04:05;14.97;;;7.13;;
19111;SDS011;9688;51.906;8.376;2023-08-17T14:06:55;11.90;;;7.33;;
19111;SDS011;9688;51.906;8.376;2023-08-17T14:09:42;13.33;;;7.17;;
19111;SDS011;9688;51.906;8.376;2023-08-17T14:12:28;10.10;;;6.77;;
19111;SDS011;9688;51.906;8.376;2023-08-17T14:15:16;10.13;;;6.00;;
19111;SDS011;9688;51.906;8.376;2023-08-17T14:18:02;11.43;;;7.13;;
19111;SDS011;9688;51.906;8.376;2023-08-17T14:20:49;9.63;;;7.20;;
19111;SDS011;9688;51.906;8.376;2023-08-17T14:23:35;10.10;;;7.20;;
19111;SDS011;9688;51.906;8.376;2023-08-17T14:26:22;11.47;;;7.83;;
19111;SDS011;9688;51.906;8.376;2023-08-17T14:29:08;12.00;;;7.57;;
19111;SDS011;9688;51.906;8.376;2023-08-17T14:31:56;11.60;;;8.27;;
19111;SDS011;9688;51.906;8.376;2023-08-17T14:34:43;12.67;;;8.63;;
19111;SDS011;9688;51.906;8.376;2023-08-17T14:37:29;10.97;;;8.07;;
19111;SDS011;9688;51.906;8.376;2023-08-17T14:43:43;13.10;;;8.47;;
19111;SDS011;9688;51.906;8.376;2023-08-17T14:46:31;12.37;;;7.53;;
19111;SDS011;9688;51.906;8.376;2023-08-17T14:49:21;11.10;;;7.50;;
19111;SDS011;9688;51.906;8.376;2023-08-17T14:52:09;13.17;;;7.83;;
19111;SDS011;9688;51.906;8.376;2023-08-17T14:54:58;12.20;;;7.57;;
19111;SDS011;9688;51.906;8.376;2023-08-17T14:57:44;10.43;;;6.43;;
19111;SDS011;9688;51.906;8.376;2023-08-17T15:00:29;6.90;;;5.70;;
19111;SDS011;9688;51.906;8.376;2023-08-17T15:03:16;13.27;;;6.80;;
19111;SDS011;9688;51.906;8.376;2023-08-17T15:06:04;10.80;;;6.37;;
19111;SDS011;9688;51.906;8.376;2023-08-17T15:08:50;8.23;;;5.93;;
19111;SDS011;9688;51.906;8.376;2023-08-17T15:11:36;10.57;;;5.77;;
19111;SDS011;9688;51.906;8.376;2023-08-17T15:14:22;12.80;;;6.57;;
19111;SDS011;9688;51.906;8.376;2023-08-17T15:17:08;8.57;;;6.43;;
19111;SDS011;9688;51.906;8.376;2023-08-17T15:19:57;11.87;;;6.80;;
19111;SDS011;9688;51.906;8.376;2023-08-17T15:22:45;12.30;;;7.70;;
19111;SDS011;9688;51.906;8.376;2023-08-17T15:25:33;11.73;;;7.07;;
19111;SDS011;9688;51.906;8.376;2023-08-17T15:28:21;10.07;;;6.60;;
19111;SDS011;9688;51.906;8.376;2023-08-17T15:31:07;12.07;;;6.47;;
19111;SDS011;9688;51.906;8.376;2023-08-17T15:33:57;10.23;;;6.53;;
19111;SDS011;9688;51.906;8.376;2023-08-17T15:36:43;12.20;;;6.67;;
19111;SDS011;9688;51.906;8.376;2023-08-17T15:39:30;12.10;;;6.33;;
19111;SDS011;9688;51.906;8.376;2023-08-17T15:42:16;9.73;;;6.20;;
19111;SDS011;9688;51.906;8.376;2023-08-17T15:45:02;7.50;;;6.00;;
19111;SDS011;9688;51.906;8.376;2023-08-17T15:47:49;9.57;;;6.67;;
19111;SDS011;9688;51.906;8.376;2023-08-17T15:50:35;9.87;;;6.53;;
19111;SDS011;9688;51.906;8.376;2023-08-17T15:53:20;10.70;;;6.50;;
19111;SDS011;9688;51.906;8.376;2023-08-17T15:56:07;10.10;;;6.40;;
19111;SDS011;9688;51.906;8.376;2023-08-17T15:58:54;10.63;;;7.20;;
19111;SDS011;9688;51.906;8.376;2023-08-17T16:01:41;9.67;;;6.80;;
19111;SDS011;9688;51.906;8.376;2023-08-17T16:04:27;10.70;;;6.40;;
19111;SDS011;9688;51.906;8.376;2023-08-17T16:07:14;10.40;;;6.27;;
19111;SDS011;9688;51.906;8.376;2023-08-17T16:09:59;7.50;;;5.63;;
19111;SDS011;9688;51.906;8.376;2023-08-17T16:12:46;9.30;;;5.97;;
19111;SDS011;9688;51.906;8.376;2023-08-17T16:15:32;7.50;;;5.83;;
19111;SDS011;9688;51.906;8.376;2023-08-17T16:18:19;9.23;;;6.10;;
19111;SDS011;9688;51.906;8.376;2023-08-17T16:21:06;10.17;;;6.10;;
19111;SDS011;9688;51.906;8.376;2023-08-17T16:23:52;11.07;;;6.20;;
19111;SDS011;9688;51.906;8.376;2023-08-17T16:26:38;12.20;;;6.40;;
19111;SDS011;9688;51.906;8.376;2023-08-17T16:29:27;10.67;;;6.30;;
19111;SDS011;9688;51.906;8.376;2023-08-17T16:32:13;9.50;;;6.10;;
19111;SDS011;9688;51.906;8.376;2023-08-17T16:34:59;10.33;;;6.30;;
19111;SDS011;9688;51.906;8.376;2023-08-17T16:37:45;12.40;;;6.03;;
19111;SDS011;9688;51.906;8.376;2023-08-17T16:40:31;9.57;;;6.20;;
19111;SDS011;9688;51.906;8.376;2023-08-17T16:43:17;13.03;;;6.43;;
19111;SDS011;9688;51.906;8.376;2023-08-17T16:46:05;10.87;;;6.10;;
19111;SDS011;9688;51.906;8.376;2023-08-17T16:48:51;10.27;;;6.47;;
19111;SDS011;9688;51.906;8.376;2023-08-17T16:51:37;11.20;;;6.27;;
19111;SDS011;9688;51.906;8.376;2023-08-17T16:54:23;11.33;;;6.63;;
19111;SDS011;9688;51.906;8.376;2023-08-17T16:57:09;11.20;;;6.40;;
19111;SDS011;9688;51.906;8.376;2023-08-17T16:59:56;13.50;;;6.50;;
19111;SDS011;9688;51.906;8.376;2023-08-17T17:02:43;11.90;;;6.27;;